Terminal Aerodrome Forecast
Issued by NWS Omaha/Valley, NE

Home | Current Version | Previous Version | Graphics & Text | Print | Product List | Glossary On
Versions: 1 2 3 4 5 6 7 8 9 10 11 12 13 14 15 16 17 18 19 20 21 22 23 24 25 26 27 28 29 30 31 32 33 34 35 36 37 38 39 40 41 42 43 44 45
084
FTUS43 KOAX 252021 AAB
TAFOFK
TAF AMD
KOFK 252021Z 2520/2618 35014KT P6SM OVC010
     FM260000 35014G22KT P6SM VCSH OVC008
     FM260500 33016G24KT P6SM OVC008
     FM261600 32019KT P6SM OVC012=

USA.gov is the U.S. government's official web portal to all federal, state and local government web resources and services.